sensor_id;sensor_type;location;lat;lon;timestamp;pressure;altitude;pressure_sealevel;temperature;humidity
21109;BME280;10712;52.944;9.098;2023-01-29T00:01:52;102703.44;;;10.20;48.51
21109;BME280;10712;52.944;9.098;2023-01-29T00:04:18;102697.22;;;10.20;48.40
21109;BME280;10712;52.944;9.098;2023-01-29T00:06:44;102700.91;;;10.14;48.52
21109;BME280;10712;52.944;9.098;2023-01-29T00:09:11;102697.41;;;10.11;48.49
21109;BME280;10712;52.944;9.098;2023-01-29T00:11:37;102698.47;;;10.05;48.55
21109;BME280;10712;52.944;9.098;2023-01-29T00:14:03;102694.88;;;10.06;48.61
21109;BME280;10712;52.944;9.098;2023-01-29T00:16:29;102694.06;;;10.03;48.46
21109;BME280;10712;52.944;9.098;2023-01-29T00:18:55;102695.91;;;10.01;48.78
21109;BME280;10712;52.944;9.098;2023-01-29T00:21:21;102696.78;;;10.01;48.70
21109;BME280;10712;52.944;9.098;2023-01-29T00:23:48;102694.28;;;9.95;48.56
21109;BME280;10712;52.944;9.098;2023-01-29T00:26:15;102698.69;;;9.96;48.43
21109;BME280;10712;52.944;9.098;2023-01-29T00:28:44;102685.34;;;9.96;48.51
21109;BME280;10712;52.944;9.098;2023-01-29T00:31:18;102684.38;;;10.00;48.53
21109;BME280;10712;52.944;9.098;2023-01-29T00:33:44;102687.97;;;9.99;48.64
21109;BME280;10712;52.944;9.098;2023-01-29T00:36:12;102680.91;;;9.97;48.43
21109;BME280;10712;52.944;9.098;2023-01-29T00:38:39;102677.53;;;9.90;48.53
21109;BME280;10712;52.944;9.098;2023-01-29T00:41:11;102673.25;;;9.83;48.62
21109;BME280;10712;52.944;9.098;2023-01-29T00:43:56;102670.44;;;9.89;48.72
21109;BME280;10712;52.944;9.098;2023-01-29T00:46:42;102659.81;;;9.89;48.65
21109;BME280;10712;52.944;9.098;2023-01-29T00:49:08;102661.72;;;9.84;48.62
21109;BME280;10712;52.944;9.098;2023-01-29T00:51:35;102658.19;;;9.82;48.76
21109;BME280;10712;52.944;9.098;2023-01-29T00:54:02;102644.06;;;9.80;48.83
21109;BME280;10712;52.944;9.098;2023-01-29T00:56:33;102654.56;;;9.86;48.68
21109;BME280;10712;52.944;9.098;2023-01-29T00:59:00;102653.88;;;9.78;48.81
21109;BME280;10712;52.944;9.098;2023-01-29T01:01:26;102646.66;;;9.83;48.66
21109;BME280;10712;52.944;9.098;2023-01-29T01:04:11;102641.41;;;9.80;48.75
21109;BME280;10712;52.944;9.098;2023-01-29T01:06:39;102644.13;;;9.77;48.69
21109;BME280;10712;52.944;9.098;2023-01-29T01:09:07;102638.91;;;9.74;48.89
21109;BME280;10712;52.944;9.098;2023-01-29T01:11:52;102638.13;;;9.69;48.93
21109;BME280;10712;52.944;9.098;2023-01-29T01:14:19;102650.66;;;9.65;48.99
21109;BME280;10712;52.944;9.098;2023-01-29T01:16:46;102651.66;;;9.60;49.03
21109;BME280;10712;52.944;9.098;2023-01-29T01:19:13;102648.31;;;9.52;49.18
21109;BME280;10712;52.944;9.098;2023-01-29T01:21:40;102655.38;;;9.53;49.05
21109;BME280;10712;52.944;9.098;2023-01-29T01:24:11;102657.16;;;9.54;49.13
21109;BME280;10712;52.944;9.098;2023-01-29T01:26:38;102659.84;;;9.51;49.14
21109;BME280;10712;52.944;9.098;2023-01-29T01:29:05;102674.81;;;9.56;49.14
21109;BME280;10712;52.944;9.098;2023-01-29T01:31:30;102681.84;;;9.59;49.15
21109;BME280;10712;52.944;9.098;2023-01-29T01:33:56;102680.03;;;9.61;49.16
21109;BME280;10712;52.944;9.098;2023-01-29T01:36:22;102675.53;;;9.63;49.19
21109;BME280;10712;52.944;9.098;2023-01-29T01:38:48;102671.06;;;9.65;49.23
21109;BME280;10712;52.944;9.098;2023-01-29T01:41:18;102674.47;;;9.70;49.20
21109;BME280;10712;52.944;9.098;2023-01-29T01:43:56;102679.75;;;9.73;49.31
21109;BME280;10712;52.944;9.098;2023-01-29T01:46:33;102674.41;;;9.73;49.33
21109;BME280;10712;52.944;9.098;2023-01-29T01:49:09;102680.50;;;9.78;49.36
21109;BME280;10712;52.944;9.098;2023-01-29T01:51:42;102678.72;;;9.78;49.22
21109;BME280;10712;52.944;9.098;2023-01-29T01:54:15;102682.28;;;9.77;49.27
21109;BME280;10712;52.944;9.098;2023-01-29T01:56:49;102677.78;;;9.81;49.29
21109;BME280;10712;52.944;9.098;2023-01-29T01:59:21;102685.75;;;9.81;49.27
21109;BME280;10712;52.944;9.098;2023-01-29T02:01:52;102677.69;;;9.84;49.32
21109;BME280;10712;52.944;9.098;2023-01-29T02:04:24;102681.03;;;9.92;49.25
21109;BME280;10712;52.944;9.098;2023-01-29T02:07:13;102678.34;;;9.94;49.12
21109;BME280;10712;52.944;9.098;2023-01-29T02:10:13;102673.19;;;9.86;49.31
21109;BME280;10712;52.944;9.098;2023-01-29T02:12:42;102677.63;;;9.87;49.19
21109;BME280;10712;52.944;9.098;2023-01-29T02:15:09;102686.34;;;9.94;49.27
21109;BME280;10712;52.944;9.098;2023-01-29T02:17:35;102687.22;;;9.94;49.17
21109;BME280;10712;52.944;9.098;2023-01-29T02:20:28;102675.72;;;9.92;49.28
21109;BME280;10712;52.944;9.098;2023-01-29T02:29:22;102663.09;;;10.00;49.21
21109;BME280;10712;52.944;9.098;2023-01-29T02:35:14;102664.03;;;9.98;49.43
21109;BME280;10712;52.944;9.098;2023-01-29T02:41:43;102661.34;;;9.99;49.29
21109;BME280;10712;52.944;9.098;2023-01-29T02:44:39;102659.38;;;10.06;49.14
21109;BME280;10712;52.944;9.098;2023-01-29T02:47:22;102661.19;;;10.05;49.26
21109;BME280;10712;52.944;9.098;2023-01-29T02:50:03;102659.53;;;10.01;49.37
21109;BME280;10712;52.944;9.098;2023-01-29T02:52:46;102650.63;;;10.02;49.28
21109;BME280;10712;52.944;9.098;2023-01-29T02:55:43;102652.34;;;10.03;49.33
21109;BME280;10712;52.944;9.098;2023-01-29T03:00:58;102645.19;;;10.05;49.31
21109;BME280;10712;52.944;9.098;2023-01-29T03:03:37;102644.34;;;10.03;49.43
21109;BME280;10712;52.944;9.098;2023-01-29T03:06:17;102636.38;;;10.03;49.42
21109;BME280;10712;52.944;9.098;2023-01-29T03:08:58;102627.41;;;10.07;49.47
21109;BME280;10712;52.944;9.098;2023-01-29T03:11:34;102633.56;;;10.09;49.50
21109;BME280;10712;52.944;9.098;2023-01-29T03:14:08;102625.59;;;10.09;49.49
21109;BME280;10712;52.944;9.098;2023-01-29T03:16:40;102613.16;;;10.08;49.53
21109;BME280;10712;52.944;9.098;2023-01-29T03:19:15;102609.59;;;10.09;49.50
21109;BME280;10712;52.944;9.098;2023-01-29T03:21:55;102614.81;;;10.12;49.46
21109;BME280;10712;52.944;9.098;2023-01-29T03:24:46;102597.72;;;10.22;49.26
21109;BME280;10712;52.944;9.098;2023-01-29T03:27:47;102596.09;;;10.17;49.40
21109;BME280;10712;52.944;9.098;2023-01-29T03:30:43;102595.06;;;10.22;49.13
21109;BME280;10712;52.944;9.098;2023-01-29T03:34:06;102586.00;;;10.30;48.92
21109;BME280;10712;52.944;9.098;2023-01-29T03:36:53;102578.25;;;10.20;49.13
21109;BME280;10712;52.944;9.098;2023-01-29T03:39:25;102573.97;;;10.13;49.27
21109;BME280;10712;52.944;9.098;2023-01-29T03:45:05;102559.66;;;10.17;49.21
21109;BME280;10712;52.944;9.098;2023-01-29T03:48:07;102551.69;;;10.17;49.08
21109;BME280;10712;52.944;9.098;2023-01-29T03:51:24;102557.50;;;10.32;48.84
21109;BME280;10712;52.944;9.098;2023-01-29T03:53:56;102539.34;;;10.13;49.24
21109;BME280;10712;52.944;9.098;2023-01-29T03:59:34;102532.81;;;10.25;49.09
21109;BME280;10712;52.944;9.098;2023-01-29T04:02:19;102536.19;;;10.32;48.98
21109;BME280;10712;52.944;9.098;2023-01-29T04:04:58;102539.00;;;10.27;48.92
21109;BME280;10712;52.944;9.098;2023-01-29T04:07:28;102539.63;;;10.37;48.82
21109;BME280;10712;52.944;9.098;2023-01-29T04:10:15;102539.00;;;10.27;48.94
21109;BME280;10712;52.944;9.098;2023-01-29T04:12:54;102543.47;;;10.25;48.91
21109;BME280;10712;52.944;9.098;2023-01-29T04:15:23;102535.59;;;10.22;49.17
21109;BME280;10712;52.944;9.098;2023-01-29T04:17:54;102524.22;;;10.15;49.25
21109;BME280;10712;52.944;9.098;2023-01-29T04:20:34;102529.38;;;10.21;49.21
21109;BME280;10712;52.944;9.098;2023-01-29T04:23:01;102532.78;;;10.26;49.01
21109;BME280;10712;52.944;9.098;2023-01-29T04:25:35;102525.97;;;10.16;49.18
21109;BME280;10712;52.944;9.098;2023-01-29T04:34:39;102525.13;;;10.14;49.35
21109;BME280;10712;52.944;9.098;2023-01-29T04:37:01;102526.88;;;10.15;49.33
21109;BME280;10712;52.944;9.098;2023-01-29T04:39:53;102522.53;;;10.11;49.28
21109;BME280;10712;52.944;9.098;2023-01-29T04:43:57;102524.38;;;10.09;49.51
21109;BME280;10712;52.944;9.098;2023-01-29T04:46:16;102525.00;;;10.19;49.12
21109;BME280;10712;52.944;9.098;2023-01-29T04:49:36;102522.53;;;10.11;49.40
21109;BME280;10712;52.944;9.098;2023-01-29T04:52:43;102518.88;;;10.15;49.13
21109;BME280;10712;52.944;9.098;2023-01-29T04:55:20;102515.31;;;10.16;49.32
21109;BME280;10712;52.944;9.098;2023-01-29T04:58:05;102517.31;;;10.08;49.25
21109;BME280;10712;52.944;9.098;2023-01-29T05:00:39;102520.88;;;10.07;49.31
21109;BME280;10712;52.944;9.098;2023-01-29T05:03:07;102531.50;;;10.09;49.09
21109;BME280;10712;52.944;9.098;2023-01-29T05:05:35;102522.69;;;10.05;49.33
21109;BME280;10712;52.944;9.098;2023-01-29T05:08:02;102518.38;;;10.01;49.46
21109;BME280;10712;52.944;9.098;2023-01-29T05:10:30;102520.94;;;10.04;49.48
21109;BME280;10712;52.944;9.098;2023-01-29T05:13:00;102514.75;;;10.04;49.40
21109;BME280;10712;52.944;9.098;2023-01-29T05:15:46;102526.44;;;9.98;49.39
21109;BME280;10712;52.944;9.098;2023-01-29T05:18:14;102537.03;;;10.01;49.41
21109;BME280;10712;52.944;9.098;2023-01-29T05:20:42;102533.53;;;9.99;49.44
21109;BME280;10712;52.944;9.098;2023-01-29T05:23:18;102538.91;;;9.96;49.46
21109;BME280;10712;52.944;9.098;2023-01-29T05:25:45;102531.94;;;9.92;49.55
21109;BME280;10712;52.944;9.098;2023-01-29T05:28:12;102522.16;;;9.93;49.49
21109;BME280;10712;52.944;9.098;2023-01-29T05:30:50;102515.72;;;10.01;49.40
21109;BME280;10712;52.944;9.098;2023-01-29T05:33:29;102519.38;;;9.97;49.52
21109;BME280;10712;52.944;9.098;2023-01-29T05:35:57;102519.47;;;9.94;49.62
21109;BME280;10712;52.944;9.098;2023-01-29T05:38:24;102507.63;;;10.04;49.60
21109;BME280;10712;52.944;9.098;2023-01-29T05:40:50;102505.75;;;10.09;49.40
21109;BME280;10712;52.944;9.098;2023-01-29T05:43:21;102517.47;;;10.02;49.68
21109;BME280;10712;52.944;9.098;2023-01-29T05:45:59;102514.00;;;9.99;49.71
21109;BME280;10712;52.944;9.098;2023-01-29T05:48:27;102513.81;;;10.06;49.58
21109;BME280;10712;52.944;9.098;2023-01-29T05:50:58;102526.31;;;10.03;49.76
21109;BME280;10712;52.944;9.098;2023-01-29T05:53:24;102528.03;;;10.05;49.75
21109;BME280;10712;52.944;9.098;2023-01-29T05:55:49;102519.06;;;10.09;49.87
21109;BME280;10712;52.944;9.098;2023-01-29T05:58:15;102507.53;;;10.09;49.75
21109;BME280;10712;52.944;9.098;2023-01-29T06:00:44;102508.28;;;10.12;49.94
21109;BME280;10712;52.944;9.098;2023-01-29T06:03:09;102503.47;;;10.26;49.56
21109;BME280;10712;52.944;9.098;2023-01-29T06:05:39;102507.09;;;10.24;49.60
21109;BME280;10712;52.944;9.098;2023-01-29T06:08:06;102512.63;;;10.16;49.81
21109;BME280;10712;52.944;9.098;2023-01-29T06:10:33;102509.94;;;10.18;49.86
21109;BME280;10712;52.944;9.098;2023-01-29T06:12:59;102509.75;;;10.24;49.85
21109;BME280;10712;52.944;9.098;2023-01-29T06:15:25;102519.47;;;10.26;49.73
21109;BME280;10712;52.944;9.098;2023-01-29T06:17:54;102522.13;;;10.26;49.82
21109;BME280;10712;52.944;9.098;2023-01-29T06:20:20;102516.44;;;10.39;49.74
21109;BME280;10712;52.944;9.098;2023-01-29T06:22:46;102507.78;;;10.31;49.72
21109;BME280;10712;52.944;9.098;2023-01-29T06:25:12;102514.88;;;10.32;49.74
21109;BME280;10712;52.944;9.098;2023-01-29T06:27:37;102518.38;;;10.34;49.71
21109;BME280;10712;52.944;9.098;2023-01-29T06:30:04;102524.56;;;10.34;49.73
21109;BME280;10712;52.944;9.098;2023-01-29T06:32:34;102521.19;;;10.29;49.79
21109;BME280;10712;52.944;9.098;2023-01-29T06:34:59;102516.19;;;10.48;49.66
21109;BME280;10712;52.944;9.098;2023-01-29T06:37:25;102527.34;;;10.60;49.47
21109;BME280;10712;52.944;9.098;2023-01-29T06:39:51;102523.44;;;10.43;49.82
21109;BME280;10712;52.944;9.098;2023-01-29T06:42:17;102518.13;;;10.43;49.98
21109;BME280;10712;52.944;9.098;2023-01-29T06:44:43;102526.47;;;10.60;49.87
21109;BME280;10712;52.944;9.098;2023-01-29T06:47:09;102530.22;;;10.53;50.28
21109;BME280;10712;52.944;9.098;2023-01-29T06:49:35;102510.06;;;10.44;50.75
21109;BME280;10712;52.944;9.098;2023-01-29T06:52:01;102495.13;;;10.39;50.96
21109;BME280;10712;52.944;9.098;2023-01-29T06:54:26;102493.44;;;10.36;51.15
21109;BME280;10712;52.944;9.098;2023-01-29T06:56:52;102489.91;;;10.36;51.30
21109;BME280;10712;52.944;9.098;2023-01-29T06:59:18;102501.47;;;10.35;51.43
21109;BME280;10712;52.944;9.098;2023-01-29T07:01:44;102506.75;;;10.36;51.41
21109;BME280;10712;52.944;9.098;2023-01-29T07:04:10;102503.72;;;10.48;51.73
21109;BME280;10712;52.944;9.098;2023-01-29T07:06:36;102496.69;;;10.46;51.76
21109;BME280;10712;52.944;9.098;2023-01-29T07:09:03;102496.88;;;10.40;51.96
21109;BME280;10712;52.944;9.098;2023-01-29T07:11:29;102497.53;;;10.48;51.85
21109;BME280;10712;52.944;9.098;2023-01-29T07:13:55;102499.16;;;10.52;51.92
21109;BME280;10712;52.944;9.098;2023-01-29T07:16:21;102500.38;;;10.42;52.21
21109;BME280;10712;52.944;9.098;2023-01-29T07:18:48;102492.56;;;10.36;52.32
21109;BME280;10712;52.944;9.098;2023-01-29T07:21:13;102496.03;;;10.38;52.42
21109;BME280;10712;52.944;9.098;2023-01-29T07:23:39;102492.25;;;10.46;52.33
21109;BME280;10712;52.944;9.098;2023-01-29T07:26:06;102476.06;;;10.52;52.25
21109;BME280;10712;52.944;9.098;2023-01-29T07:28:36;102471.91;;;10.44;52.42
21109;BME280;10712;52.944;9.098;2023-01-29T07:31:03;102477.31;;;10.41;52.53
21109;BME280;10712;52.944;9.098;2023-01-29T07:33:30;102468.47;;;10.39;52.58
21109;BME280;10712;52.944;9.098;2023-01-29T07:35:55;102468.56;;;10.37;52.76
21109;BME280;10712;52.944;9.098;2023-01-29T07:38:21;102482.56;;;10.44;52.57
21109;BME280;10712;52.944;9.098;2023-01-29T07:40:47;102478.38;;;10.35;53.06
21109;BME280;10712;52.944;9.098;2023-01-29T07:43:13;102474.31;;;10.51;52.61
21109;BME280;10712;52.944;9.098;2023-01-29T07:45:40;102479.81;;;10.45;52.64
21109;BME280;10712;52.944;9.098;2023-01-29T07:48:10;102466.19;;;10.56;52.35
21109;BME280;10712;52.944;9.098;2023-01-29T07:50:37;102469.78;;;10.55;52.38
21109;BME280;10712;52.944;9.098;2023-01-29T07:53:03;102464.16;;;10.64;51.95
21109;BME280;10712;52.944;9.098;2023-01-29T07:55:30;102462.69;;;10.54;52.13
21109;BME280;10712;52.944;9.098;2023-01-29T07:58:01;102466.28;;;10.53;52.20
21109;BME280;10712;52.944;9.098;2023-01-29T08:00:30;102458.44;;;10.48;52.43
21109;BME280;10712;52.944;9.098;2023-01-29T08:03:10;102459.13;;;10.55;52.32
21109;BME280;10712;52.944;9.098;2023-01-29T08:05:36;102460.94;;;10.53;52.58
21109;BME280;10712;52.944;9.098;2023-01-29T08:08:03;102462.88;;;10.48;52.43
21109;BME280;10712;52.944;9.098;2023-01-29T08:10:29;102466.09;;;10.59;52.31
21109;BME280;10712;52.944;9.098;2023-01-29T08:13:00;102463.59;;;10.53;52.28
21109;BME280;10712;52.944;9.098;2023-01-29T08:15:27;102458.44;;;10.48;52.57
21109;BME280;10712;52.944;9.098;2023-01-29T08:17:53;102459.94;;;10.57;52.39
21109;BME280;10712;52.944;9.098;2023-01-29T08:20:20;102459.00;;;10.58;52.24
21109;BME280;10712;52.944;9.098;2023-01-29T08:22:46;102453.78;;;10.55;52.46
21109;BME280;10712;52.944;9.098;2023-01-29T08:25:14;102451.16;;;10.53;52.36
21109;BME280;10712;52.944;9.098;2023-01-29T08:27:40;102452.69;;;10.62;52.26
21109;BME280;10712;52.944;9.098;2023-01-29T08:30:08;102451.84;;;10.60;52.22
21109;BME280;10712;52.944;9.098;2023-01-29T08:32:34;102458.72;;;10.67;52.18
21109;BME280;10712;52.944;9.098;2023-01-29T08:35:00;102452.63;;;10.63;52.08
21109;BME280;10712;52.944;9.098;2023-01-29T08:37:26;102448.78;;;10.72;51.81
21109;BME280;10712;52.944;9.098;2023-01-29T08:39:52;102448.06;;;10.67;51.91
21109;BME280;10712;52.944;9.098;2023-01-29T08:42:18;102453.41;;;10.67;51.91
21109;BME280;10712;52.944;9.098;2023-01-29T08:44:43;102456.91;;;10.69;52.08
21109;BME280;10712;52.944;9.098;2023-01-29T08:47:09;102446.03;;;10.75;51.92
21109;BME280;10712;52.944;9.098;2023-01-29T08:49:35;102459.53;;;10.71;51.99
21109;BME280;10712;52.944;9.098;2023-01-29T08:52:01;102448.75;;;10.74;52.02
21109;BME280;10712;52.944;9.098;2023-01-29T08:54:26;102445.84;;;10.81;51.84
21109;BME280;10712;52.944;9.098;2023-01-29T08:56:52;102442.16;;;10.85;51.93
21109;BME280;10712;52.944;9.098;2023-01-29T08:59:18;102429.09;;;10.78;51.82
21109;BME280;10712;52.944;9.098;2023-01-29T09:01:44;102423.53;;;10.84;51.83
21109;BME280;10712;52.944;9.098;2023-01-29T09:04:10;102419.16;;;10.81;51.58
21109;BME280;10712;52.944;9.098;2023-01-29T09:06:35;102418.56;;;10.99;51.43
21109;BME280;10712;52.944;9.098;2023-01-29T09:09:01;102415.28;;;10.91;51.50
21109;BME280;10712;52.944;9.098;2023-01-29T09:11:27;102415.19;;;10.94;51.22
21109;BME280;10712;52.944;9.098;2023-01-29T09:13:53;102418.56;;;10.99;51.11
21109;BME280;10712;52.944;9.098;2023-01-29T09:16:19;102413.84;;;11.07;50.79
21109;BME280;10712;52.944;9.098;2023-01-29T09:18:44;102413.03;;;11.05;50.50
21109;BME280;10712;52.944;9.098;2023-01-29T09:21:10;102405.97;;;11.04;50.21
21109;BME280;10712;52.944;9.098;2023-01-29T09:23:36;102400.72;;;11.01;50.59
21109;BME280;10712;52.944;9.098;2023-01-29T09:26:02;102402.25;;;11.09;50.60
21109;BME280;10712;52.944;9.098;2023-01-29T09:28:28;102405.19;;;11.01;50.67
21109;BME280;10712;52.944;9.098;2023-01-29T09:30:54;102398.06;;;11.01;50.47
21109;BME280;10712;52.944;9.098;2023-01-29T09:33:20;102392.72;;;11.01;50.75
21109;BME280;10712;52.944;9.098;2023-01-29T09:35:46;102393.81;;;10.96;50.21
21109;BME280;10712;52.944;9.098;2023-01-29T09:38:12;102400.84;;;10.98;50.09
21109;BME280;10712;52.944;9.098;2023-01-29T09:47:26;102382.25;;;10.95;50.27
21109;BME280;10712;52.944;9.098;2023-01-29T09:49:58;102395.50;;;10.98;50.29
21109;BME280;10712;52.944;9.098;2023-01-29T09:52:40;102395.19;;;11.07;50.24
21109;BME280;10712;52.944;9.098;2023-01-29T09:55:49;102393.81;;;10.96;50.26
21109;BME280;10712;52.944;9.098;2023-01-29T09:58:39;102383.59;;;11.09;49.77
21109;BME280;10712;52.944;9.098;2023-01-29T10:01:22;102381.63;;;11.14;49.57
21109;BME280;10712;52.944;9.098;2023-01-29T10:10:29;102370.69;;;11.21;49.54
21109;BME280;10712;52.944;9.098;2023-01-29T10:21:56;102359.13;;;11.21;49.12
21109;BME280;10712;52.944;9.098;2023-01-29T10:24:39;102351.88;;;11.26;48.99
21109;BME280;10712;52.944;9.098;2023-01-29T10:27:16;102357.84;;;11.32;48.88
21109;BME280;10712;52.944;9.098;2023-01-29T10:29:46;102346.91;;;11.40;48.79
21109;BME280;10712;52.944;9.098;2023-01-29T10:32:18;102349.69;;;11.37;48.87
21109;BME280;10712;52.944;9.098;2023-01-29T10:35:02;102354.78;;;11.43;48.74
21109;BME280;10712;52.944;9.098;2023-01-29T10:37:42;102346.91;;;11.40;48.45
21109;BME280;10712;52.944;9.098;2023-01-29T10:40:38;102356.03;;;11.58;48.33
21109;BME280;10712;52.944;9.098;2023-01-29T10:43:35;102343.25;;;11.42;48.39
21109;BME280;10712;52.944;9.098;2023-01-29T10:48:39;102340.31;;;11.50;48.33
21109;BME280;10712;52.944;9.098;2023-01-29T10:51:29;102339.69;;;11.42;48.44
21109;BME280;10712;52.944;9.098;2023-01-29T10:56:57;102334.00;;;11.53;48.20
21109;BME280;10712;52.944;9.098;2023-01-29T11:00:12;102333.56;;;11.63;48.14
21109;BME280;10712;52.944;9.098;2023-01-29T11:02:45;102316.03;;;11.56;48.17
21109;BME280;10712;52.944;9.098;2023-01-29T11:05:26;102308.88;;;11.58;48.35
21109;BME280;10712;52.944;9.098;2023-01-29T11:08:04;102316.78;;;11.61;48.36
21109;BME280;10712;52.944;9.098;2023-01-29T11:10:37;102306.19;;;11.58;48.29
21109;BME280;10712;52.944;9.098;2023-01-29T11:13:12;102306.66;;;11.69;48.17
21109;BME280;10712;52.944;9.098;2023-01-29T11:15:40;102297.13;;;11.62;48.33
21109;BME280;10712;52.944;9.098;2023-01-29T11:18:14;102289.84;;;11.67;48.12
21109;BME280;10712;52.944;9.098;2023-01-29T11:20:43;102275.34;;;11.74;48.12
21109;BME280;10712;52.944;9.098;2023-01-29T11:23:30;102276.72;;;11.84;47.83
21109;BME280;10712;52.944;9.098;2023-01-29T11:25:57;102274.06;;;11.84;47.61
21109;BME280;10712;52.944;9.098;2023-01-29T11:33:46;102258.94;;;11.83;48.17
21109;BME280;10712;52.944;9.098;2023-01-29T11:36:41;102262.34;;;11.89;47.81
21109;BME280;10712;52.944;9.098;2023-01-29T11:44:43;102234.25;;;12.00;47.88
21109;BME280;10712;52.944;9.098;2023-01-29T11:47:18;102231.78;;;11.96;47.89
21109;BME280;10712;52.944;9.098;2023-01-29T11:49:53;102242.06;;;12.05;47.54
21109;BME280;10712;52.944;9.098;2023-01-29T11:52:24;102234.94;;;12.05;47.47
21109;BME280;10712;52.944;9.098;2023-01-29T11:54:58;102227.94;;;12.03;47.42
21109;BME280;10712;52.944;9.098;2023-01-29T11:57:40;102218.59;;;12.13;47.29
21109;BME280;10712;52.944;9.098;2023-01-29T12:00:20;102211.25;;;12.18;47.36
21109;BME280;10712;52.944;9.098;2023-01-29T12:03:11;102208.91;;;12.10;46.87
21109;BME280;10712;52.944;9.098;2023-01-29T12:06:03;102201.03;;;12.07;46.87
21109;BME280;10712;52.944;9.098;2023-01-29T12:08:36;102204.38;;;12.12;47.03
21109;BME280;10712;52.944;9.098;2023-01-29T12:11:23;102206.31;;;12.09;47.31
21109;BME280;10712;52.944;9.098;2023-01-29T12:13:56;102195.84;;;12.24;46.96
21109;BME280;10712;52.944;9.098;2023-01-29T12:16:42;102191.63;;;12.19;47.10
21109;BME280;10712;52.944;9.098;2023-01-29T12:19:33;102195.63;;;12.09;47.10
21109;BME280;10712;52.944;9.098;2023-01-29T12:22:47;102195.22;;;12.18;46.76
21109;BME280;10712;52.944;9.098;2023-01-29T12:25:49;102181.34;;;12.10;47.19
21109;BME280;10712;52.944;9.098;2023-01-29T12:28:38;102176.47;;;12.19;46.80
21109;BME280;10712;52.944;9.098;2023-01-29T12:34:48;102154.97;;;12.22;46.88
21109;BME280;10712;52.944;9.098;2023-01-29T12:37:39;102156.06;;;12.17;46.98
21109;BME280;10712;52.944;9.098;2023-01-29T12:40:17;102150.59;;;12.20;47.11
21109;BME280;10712;52.944;9.098;2023-01-29T12:42:49;102151.47;;;12.20;47.37
21109;BME280;10712;52.944;9.098;2023-01-29T12:45:21;102148.00;;;12.18;47.67
21109;BME280;10712;52.944;9.098;2023-01-29T12:47:54;102150.84;;;12.36;47.25
21109;BME280;10712;52.944;9.098;2023-01-29T12:50:29;102143.13;;;12.28;47.23
21109;BME280;10712;52.944;9.098;2023-01-29T12:55:50;102130.81;;;12.24;47.60
21109;BME280;10712;52.944;9.098;2023-01-29T12:58:49;102129.63;;;12.31;47.29
21109;BME280;10712;52.944;9.098;2023-01-29T13:01:29;102132.72;;;12.42;46.89
21109;BME280;10712;52.944;9.098;2023-01-29T13:04:12;102110.81;;;12.34;47.14
21109;BME280;10712;52.944;9.098;2023-01-29T13:06:52;102119.75;;;12.33;47.19
21109;BME280;10712;52.944;9.098;2023-01-29T13:09:28;102105.59;;;12.31;46.98
21109;BME280;10712;52.944;9.098;2023-01-29T13:12:09;102107.47;;;12.29;47.27
21109;BME280;10712;52.944;9.098;2023-01-29T13:14:56;102111.88;;;12.30;47.23
21109;BME280;10712;52.944;9.098;2023-01-29T13:17:43;102106.28;;;12.36;47.02
21109;BME280;10712;52.944;9.098;2023-01-29T13:20:37;102097.44;;;12.34;47.27
21109;BME280;10712;52.944;9.098;2023-01-29T13:23:21;102094.16;;;12.28;47.16
21109;BME280;10712;52.944;9.098;2023-01-29T13:25:52;102090.56;;;12.29;47.26
21109;BME280;10712;52.944;9.098;2023-01-29T13:28:24;102093.69;;;12.18;47.62
21109;BME280;10712;52.944;9.098;2023-01-29T13:31:29;102087.56;;;11.96;48.18
21109;BME280;10712;52.944;9.098;2023-01-29T13:34:33;102081.25;;;12.17;47.74
21109;BME280;10712;52.944;9.098;2023-01-29T13:37:09;102084.47;;;12.25;47.64
21109;BME280;10712;52.944;9.098;2023-01-29T13:39:39;102083.81;;;12.20;47.79
21109;BME280;10712;52.944;9.098;2023-01-29T13:42:19;102073.94;;;12.22;47.55
21109;BME280;10712;52.944;9.098;2023-01-29T13:44:53;102073.66;;;12.28;47.35
21109;BME280;10712;52.944;9.098;2023-01-29T13:47:30;102066.19;;;12.16;47.78
21109;BME280;10712;52.944;9.098;2023-01-29T13:50:06;102055.34;;;12.39;47.45
21109;BME280;10712;52.944;9.098;2023-01-29T13:52:58;102064.72;;;12.29;47.37
21109;BME280;10712;52.944;9.098;2023-01-29T13:55:35;102063.25;;;12.22;47.80
21109;BME280;10712;52.944;9.098;2023-01-29T14:01:08;102050.28;;;12.33;47.47
21109;BME280;10712;52.944;9.098;2023-01-29T14:03:43;102051.69;;;12.21;47.62
21109;BME280;10712;52.944;9.098;2023-01-29T14:06:09;102049.47;;;12.31;47.29
21109;BME280;10712;52.944;9.098;2023-01-29T14:08:36;102045.19;;;12.27;47.77
21109;BME280;10712;52.944;9.098;2023-01-29T14:13:47;102044.94;;;12.33;47.15
21109;BME280;10712;52.944;9.098;2023-01-29T14:18:52;102043.06;;;12.35;47.28
21109;BME280;10712;52.944;9.098;2023-01-29T14:21:33;102039.72;;;12.30;47.14
21109;BME280;10712;52.944;9.098;2023-01-29T14:24:18;102033.25;;;12.36;47.11
21109;BME280;10712;52.944;9.098;2023-01-29T14:26:48;102032.78;;;12.26;47.24
21109;BME280;10712;52.944;9.098;2023-01-29T14:29:24;102030.63;;;12.34;47.41
21109;BME280;10712;52.944;9.098;2023-01-29T14:31:58;102015.59;;;12.32;47.59
21109;BME280;10712;52.944;9.098;2023-01-29T14:34:30;102025.53;;;12.09;47.89
21109;BME280;10712;52.944;9.098;2023-01-29T14:37:32;102018.22;;;12.13;47.77
21109;BME280;10712;52.944;9.098;2023-01-29T14:43:03;102010.41;;;12.29;47.46
21109;BME280;10712;52.944;9.098;2023-01-29T14:45:38;102006.13;;;12.24;47.52
21109;BME280;10712;52.944;9.098;2023-01-29T14:53:17;102001.13;;;12.17;47.75
21109;BME280;10712;52.944;9.098;2023-01-29T14:55:48;102001.28;;;12.14;48.04
21109;BME280;10712;52.944;9.098;2023-01-29T14:58:38;101992.00;;;12.02;48.23
21109;BME280;10712;52.944;9.098;2023-01-29T15:01:35;101996.75;;;11.96;48.70